N850LX KPVD-KACK
Flight info
| Callsign | N850LX |
|---|---|
| Flight time | N/A |
| Altitude | 15000 |
| Route | PVD PVD143 CLAMY |
| Aircraft | TBM8/L-SDFGIRWY/EB1 |
Departure
| Time | 2026-05-04 20:44 |
|---|---|
| Airport | Rhode Island T. F. Green International Airport (KPVD) |
Arrival
| Time | N/A |
|---|---|
| Airport | Nantucket Memorial Airport (KACK) |
| Time | Latitude | Longitude | Altitude | Speed | Heading |
|---|---|---|---|---|---|
| 2026-05-04 20:21 | 41.72471 | -71.43650 | 62 ft | 0 kts | 111° |
| 2026-05-04 20:34 | 41.72476 | -71.43663 | 58 ft | 4 kts | 147° |
| 2026-05-04 20:34 | 41.72500 | -71.43654 | 61 ft | 2 kts | 213° |
| 2026-05-04 20:34 | 41.72506 | -71.43650 | 58 ft | 0 kts | 213° |
| 2026-05-04 20:37 | 41.72506 | -71.43649 | 58 ft | 0 kts | 213° |
| 2026-05-04 20:37 | 41.72508 | -71.43648 | 59 ft | 0 kts | 212° |
| 2026-05-04 20:37 | 41.72495 | -71.43658 | 55 ft | 6 kts | 211° |
| 2026-05-04 20:38 | 41.72446 | -71.43694 | 61 ft | 3 kts | 205° |
| 2026-05-04 20:38 | 41.72430 | -71.43704 | 61 ft | 12 kts | 204° |
| 2026-05-04 20:38 | 41.72339 | -71.43675 | 57 ft | 20 kts | 118° |
| 2026-05-04 20:38 | 41.72388 | -71.43499 | 60 ft | 28 kts | 32° |
| 2026-05-04 20:39 | 41.72531 | -71.43381 | 61 ft | 22 kts | 37° |
| 2026-05-04 20:39 | 41.72542 | -71.43223 | 59 ft | 16 kts | 91° |
| 2026-05-04 20:39 | 41.72550 | -71.43077 | 56 ft | 17 kts | 86° |
| 2026-05-04 20:39 | 41.72556 | -71.42914 | 54 ft | 18 kts | 96° |
| 2026-05-04 20:40 | 41.72500 | -71.42769 | 50 ft | 16 kts | 101° |
| 2026-05-04 20:40 | 41.72577 | -71.42667 | 47 ft | 18 kts | 30° |
| 2026-05-04 20:40 | 41.72682 | -71.42580 | 47 ft | 17 kts | 33° |
| 2026-05-04 20:40 | 41.72786 | -71.42485 | 45 ft | 19 kts | 36° |
| 2026-05-04 20:41 | 41.72901 | -71.42395 | 47 ft | 18 kts | 31° |
| 2026-05-04 20:41 | 41.72998 | -71.42313 | 48 ft | 16 kts | 31° |
| 2026-05-04 20:41 | 41.73089 | -71.42229 | 49 ft | 12 kts | 69° |
| 2026-05-04 20:41 | 41.73071 | -71.42174 | 48 ft | 0 kts | 122° |
| 2026-05-04 20:43 | 41.73034 | -71.42118 | 47 ft | 17 kts | 166° |
| 2026-05-04 20:43 | 41.72860 | -71.42257 | 45 ft | 52 kts | 213° |
| 2026-05-04 20:43 | 41.72427 | -71.42618 | 85 ft | 92 kts | 211° |
| 2026-05-04 20:44 | 41.71861 | -71.43063 | 387 ft | 104 kts | 211° |
| 2026-05-04 20:44 | 41.71209 | -71.43374 | 794 ft | 112 kts | 184° |
| 2026-05-04 20:44 | 41.70718 | -71.43135 | 1081 ft | 122 kts | 149° |
| 2026-05-04 20:44 | 41.69917 | -71.42042 | 1759 ft | 126 kts | 148° |
| 2026-05-04 20:45 | 41.69301 | -71.41190 | 2211 ft | 129 kts | 147° |
| 2026-05-04 20:45 | 41.68685 | -71.40306 | 2656 ft | 134 kts | 146° |
| 2026-05-04 20:45 | 41.68036 | -71.39396 | 3160 ft | 137 kts | 146° |
| 2026-05-04 20:45 | 41.67361 | -71.38472 | 3626 ft | 141 kts | 146° |
| 2026-05-04 20:46 | 41.66644 | -71.37520 | 3989 ft | 156 kts | 146° |
| 2026-05-04 20:46 | 41.65767 | -71.36436 | 4017 ft | 186 kts | 146° |
| 2026-05-04 20:46 | 41.64731 | -71.35218 | 4019 ft | 208 kts | 146° |
| 2026-05-04 20:46 | 41.63591 | -71.33918 | 4010 ft | 222 kts | 146° |
| 2026-05-04 20:47 | 41.62387 | -71.32552 | 4012 ft | 231 kts | 147° |
| 2026-05-04 20:47 | 41.61561 | -71.31610 | 4148 ft | 227 kts | 146° |
| 2026-05-04 20:47 | 41.60119 | -71.29852 | 4908 ft | 207 kts | 134° |
| 2026-05-04 20:47 | 41.59608 | -71.28148 | 5675 ft | 189 kts | 103° |
| 2026-05-04 20:48 | 41.59320 | -71.26560 | 6496 ft | 165 kts | 110° |
| 2026-05-04 20:48 | 41.58946 | -71.25129 | 6983 ft | 165 kts | 114° |
| 2026-05-04 20:48 | 41.58547 | -71.23681 | 7401 ft | 166 kts | 113° |
| 2026-05-04 20:48 | 41.58148 | -71.22227 | 7833 ft | 167 kts | 112° |
| 2026-05-04 20:49 | 41.57745 | -71.20764 | 8268 ft | 168 kts | 112° |